Time;durP1;ratioP1;P1;durP2;ratioP2;P2;SDS_P1;SDS_P2;PMS_P1;PMS_P2;Temp;Humidity;BMP_temperature;BMP_pressure;BME280_temperature;BME280_humidity;BME280_pressure;Samples;Min_cycle;Max_cycle;Signal;HPM_P1;HPM_P2
2021/01/02 00:01:29;;;;;;;21.10;10.53;;;2.10;62.10;;;;;;6195767;23;20428;-83
2021/01/02 00:04:37;;;;;;;22.60;11.10;;;2.10;62.10;;;;;;6196892;23;20016;-84
2021/01/02 00:07:02;;;;;;;22.97;11.83;;;2.10;62.40;;;;;;6196190;23;20012;-84
2021/01/02 00:09:32;;;;;;;24.77;12.10;;;2.10;62.40;;;;;;6193154;23;20031;-84
2021/01/02 00:12:03;;;;;;;17.60;8.97;;;2.10;62.70;;;;;;6188753;23;20005;-84
2021/01/02 00:14:57;;;;;;;16.23;9.47;;;2.10;62.70;;;;;;6192804;23;20018;-84
2021/01/02 00:17:26;;;;;;;19.57;10.93;;;2.10;62.60;;;;;;6191607;23;20012;-84
2021/01/02 00:20:08;;;;;;;13.63;8.63;;;2.10;62.30;;;;;;6190691;23;20005;-84
2021/01/02 00:22:41;;;;;;;12.67;7.30;;;2.20;62.40;;;;;;6191607;23;20328;-83
2021/01/02 00:25:12;;;;;;;13.23;8.20;;;2.10;62.30;;;;;;6190695;23;20032;-83
2021/01/02 00:28:13;;;;;;;13.87;7.50;;;2.10;62.50;;;;;;6189264;23;20011;-83
2021/01/02 00:31:00;;;;;;;12.63;7.30;;;2.10;62.60;;;;;;6188642;23;20092;-83
2021/01/02 00:33:49;;;;;;;12.67;7.67;;;2.00;62.50;;;;;;6215423;23;20004;-83
2021/01/02 00:36:44;;;;;;;14.90;7.00;;;2.00;62.60;;;;;;6189122;23;20015;-84
2021/01/02 00:39:27;;;;;;;13.23;7.17;;;2.00;62.60;;;;;;6217433;23;20001;-84
2021/01/02 00:41:54;;;;;;;12.20;6.53;;;2.00;62.60;;;;;;6173246;23;20023;-85
2021/01/02 00:44:21;;;;;;;10.37;6.40;;;2.00;62.60;;;;;;6188005;23;20013;-84
2021/01/02 00:46:48;;;;;;;10.07;4.73;;;2.00;62.60;;;;;;6187485;23;20028;-84
2021/01/02 00:49:15;;;;;;;8.67;4.73;;;2.00;62.70;;;;;;6159960;23;20488;-84
2021/01/02 00:51:51;;;;;;;8.90;4.90;;;2.00;62.60;;;;;;6137131;23;20017;-84
2021/01/02 00:54:54;;;;;;;7.80;4.40;;;2.00;62.50;;;;;;6160408;23;20337;-84
2021/01/02 00:57:38;;;;;;;9.98;4.80;;;2.00;62.60;;;;;;6162035;23;20512;-84
2021/01/02 01:00:08;;;;;;;9.83;4.80;;;2.00;62.70;;;;;;6161075;23;20005;-84
2021/01/02 01:03:02;;;;;;;8.90;4.80;;;2.00;62.50;;;;;;6187504;23;19997;-84
2021/01/02 01:05:36;;;;;;;7.70;4.60;;;2.00;62.40;;;;;;6160422;23;20005;-84
2021/01/02 01:08:03;;;;;;;12.20;6.30;;;1.90;62.60;;;;;;6188037;23;20005;-84
2021/01/02 01:10:31;;;;;;;9.17;5.27;;;1.90;62.60;;;;;;6160045;23;20691;-84
2021/01/02 01:13:06;;;;;;;10.27;6.00;;;1.90;62.80;;;;;;6159233;23;20360;-84
2021/01/02 01:15:32;;;;;;;9.50;4.97;;;2.00;62.80;;;;;;6160245;23;20047;-84
2021/01/02 01:18:36;;;;;;;9.50;5.13;;;2.00;62.80;;;;;;6160213;23;20490;-84
2021/01/02 01:21:02;;;;;;;8.87;4.33;;;2.00;62.80;;;;;;6160062;23;20504;-84
2021/01/02 01:23:58;;;;;;;10.60;6.30;;;2.00;62.80;;;;;;6160094;23;20088;-84
2021/01/02 01:26:58;;;;;;;10.30;5.80;;;2.00;62.60;;;;;;6160205;23;20009;-84
2021/01/02 01:29:40;;;;;;;12.60;5.90;;;1.90;62.60;;;;;;6160269;23;20020;-84
2021/01/02 01:32:07;;;;;;;12.07;5.90;;;1.90;62.70;;;;;;6159279;23;20011;-84
2021/01/02 01:34:34;;;;;;;11.63;7.27;;;1.90;62.60;;;;;;6159053;23;20819;-84
2021/01/02 01:37:05;;;;;;;12.37;6.70;;;1.80;62.80;;;;;;6158481;23;20033;-84
2021/01/02 01:39:32;;;;;;;11.37;6.83;;;1.90;63.00;;;;;;6159682;23;20088;-84
2021/01/02 01:42:00;;;;;;;15.73;7.40;;;1.90;62.80;;;;;;6159557;23;20575;-83
2021/01/02 01:44:55;;;;;;;11.30;6.60;;;1.80;62.70;;;;;;6160186;23;20012;-84
2021/01/02 01:47:42;;;;;;;11.47;6.53;;;1.80;63.10;;;;;;6187576;23;20012;-84
2021/01/02 01:50:15;;;;;;;9.20;5.77;;;1.80;63.00;;;;;;6158240;23;20255;-84
2021/01/02 01:52:50;;;;;;;10.37;5.73;;;1.80;62.90;;;;;;6160930;23;20233;-84
2021/01/02 01:55:28;;;;;;;7.30;4.40;;;1.80;62.70;;;;;;6161206;23;20005;-84
2021/01/02 01:58:11;;;;;;;9.77;5.80;;;1.70;62.60;;;;;;6159725;23;20747;-84
2021/01/02 02:00:50;;;;;;;9.68;5.95;;;1.50;63.00;;;;;;6159889;23;20267;-84
2021/01/02 02:03:27;;;;;;;12.27;7.37;;;1.50;63.20;;;;;;6159236;23;20009;-84
2021/01/02 02:06:32;;;;;;;10.63;5.97;;;1.40;63.30;;;;;;6159333;23;20663;-84
2021/01/02 02:09:01;;;;;;;11.30;6.10;;;1.40;63.40;;;;;;6160777;23;20236;-84
2021/01/02 02:11:36;;;;;;;8.07;5.03;;;1.50;63.30;;;;;;6159787;23;20233;-84
2021/01/02 02:14:36;;;;;;;8.80;4.93;;;1.50;63.20;;;;;;6160068;23;20315;-84
2021/01/02 02:17:04;;;;;;;8.13;4.60;;;1.50;63.30;;;;;;6151813;23;20248;-84
2021/01/02 02:19:41;;;;;;;9.47;4.70;;;1.40;63.30;;;;;;6159767;23;20248;-84
2021/01/02 02:22:15;;;;;;;9.60;4.90;;;1.50;63.50;;;;;;6160240;23;20233;-84
2021/01/02 02:24:43;;;;;;;11.37;5.10;;;1.50;63.30;;;;;;6186203;23;20228;-84
2021/01/02 02:27:13;;;;;;;11.17;5.60;;;1.50;63.30;;;;;;6159959;23;20323;-84
2021/01/02 02:29:58;;;;;;;11.23;5.80;;;1.50;63.30;;;;;;6160060;23;20307;-84
2021/01/02 02:32:26;;;;;;;12.30;7.40;;;1.40;63.30;;;;;;6186437;23;20254;-83
2021/01/02 02:34:53;;;;;;;13.07;7.90;;;1.40;63.50;;;;;;6185789;23;20560;-83
2021/01/02 02:37:20;;;;;;;12.50;7.00;;;1.40;63.50;;;;;;6185092;23;20691;-83
2021/01/02 02:39:46;;;;;;;12.67;6.67;;;1.40;63.40;;;;;;6158270;23;20276;-84
2021/01/02 02:42:14;;;;;;;9.40;5.97;;;1.40;63.40;;;;;;6160151;23;20581;-84
2021/01/02 02:44:45;;;;;;;12.20;6.73;;;1.40;63.40;;;;;;6159425;23;20260;-84
2021/01/02 02:47:17;;;;;;;12.13;7.10;;;1.40;63.50;;;;;;6159883;23;20260;-83
2021/01/02 02:49:50;;;;;;;11.03;6.83;;;1.40;63.60;;;;;;6158306;23;20308;-83
2021/01/02 02:52:38;;;;;;;13.00;6.83;;;1.40;63.60;;;;;;6159042;23;20240;-84
2021/01/02 02:55:05;;;;;;;13.50;7.03;;;1.40;63.80;;;;;;6158825;23;20826;-84
2021/01/02 02:57:33;;;;;;;11.27;7.10;;;1.30;63.70;;;;;;6185111;23;20319;-84
2021/01/02 02:59:59;;;;;;;13.87;7.10;;;1.30;63.90;;;;;;6159118;23;20914;-84
2021/01/02 03:02:26;;;;;;;12.30;7.27;;;1.30;64.00;;;;;;6159536;23;20295;-84
2021/01/02 03:04:52;;;;;;;14.17;7.80;;;1.40;63.80;;;;;;6186268;23;20001;-84
2021/01/02 03:07:18;;;;;;;16.90;8.20;;;1.40;63.70;;;;;;6160128;23;20610;-84
2021/01/02 03:09:47;;;;;;;14.73;8.33;;;1.40;63.60;;;;;;6158521;23;20694;-84
2021/01/02 03:12:13;;;;;;;12.33;6.67;;;1.40;63.60;;;;;;6158465;23;20036;-84
2021/01/02 03:14:39;;;;;;;12.13;6.70;;;1.30;63.70;;;;;;6159370;23;20233;-84
2021/01/02 03:17:04;;;;;;;14.47;7.93;;;1.30;63.90;;;;;;6161191;23;20016;-84
2021/01/02 03:19:33;;;;;;;12.70;7.53;;;1.30;63.90;;;;;;6160481;23;20063;-84
2021/01/02 03:21:59;;;;;;;12.60;6.73;;;1.40;63.70;;;;;;6159264;23;20058;-84
2021/01/02 03:24:26;;;;;;;15.20;8.67;;;1.40;63.70;;;;;;6186495;23;20224;-84
2021/01/02 03:26:51;;;;;;;16.60;8.47;;;1.40;63.70;;;;;;6186150;23;20001;-84
2021/01/02 03:29:17;;;;;;;15.50;7.27;;;1.40;63.60;;;;;;6158742;23;20239;-84
2021/01/02 03:31:43;;;;;;;12.10;6.87;;;1.40;63.60;;;;;;6158834;23;20020;-84
2021/01/02 03:34:08;;;;;;;13.97;6.73;;;1.40;63.80;;;;;;6158624;23;20013;-84
2021/01/02 03:36:34;;;;;;;13.60;7.07;;;1.40;63.80;;;;;;6185464;23;20008;-84
2021/01/02 03:39:00;;;;;;;16.37;8.17;;;1.40;63.90;;;;;;6159827;23;20028;-84
2021/01/02 03:41:28;;;;;;;14.90;6.63;;;1.40;63.80;;;;;;6158672;23;20024;-84
2021/01/02 03:43:54;;;;;;;10.83;5.37;;;1.30;63.80;;;;;;6159791;23;20251;-85
2021/01/02 03:46:25;;;;;;;11.10;6.60;;;1.30;63.90;;;;;;6160185;23;20236;-85
2021/01/02 03:48:51;;;;;;;9.63;5.67;;;1.30;64.00;;;;;;6159309;23;20248;-85
2021/01/02 03:51:22;;;;;;;11.77;6.33;;;1.30;64.00;;;;;;6186790;23;20232;-85
2021/01/02 03:53:48;;;;;;;9.03;5.80;;;1.30;64.00;;;;;;6158973;23;20368;-85
2021/01/02 03:56:14;;;;;;;11.93;6.43;;;1.30;63.90;;;;;;6158753;23;20254;-85
2021/01/02 03:58:39;;;;;;;9.03;5.73;;;1.30;64.00;;;;;;6159208;23;20009;-85
2021/01/02 04:01:05;;;;;;;13.77;7.17;;;1.20;64.00;;;;;;6159520;23;20005;-85
2021/01/02 04:03:31;;;;;;;14.40;6.93;;;1.20;64.10;;;;;;6187109;23;20005;-85
2021/01/02 04:05:56;;;;;;;15.47;6.20;;;1.20;64.30;;;;;;6184612;23;20005;-85
2021/01/02 04:08:22;;;;;;;11.83;6.23;;;1.30;64.20;;;;;;6159987;23;20164;-85
2021/01/02 04:10:48;;;;;;;12.57;6.70;;;1.20;64.00;;;;;;6159928;23;20149;-85
2021/01/02 04:13:13;;;;;;;12.13;7.70;;;1.20;64.20;;;;;;6186541;23;20001;-85
2021/01/02 04:15:39;;;;;;;13.40;7.93;;;1.20;64.20;;;;;;6159861;23;20467;-85
2021/01/02 04:18:05;;;;;;;14.70;7.37;;;1.20;64.40;;;;;;6159901;23;20088;-84
2021/01/02 04:20:30;;;;;;;11.50;6.60;;;1.20;64.30;;;;;;6159007;23;20391;-84
2021/01/02 04:22:56;;;;;;;11.40;6.00;;;1.20;64.40;;;;;;6185722;23;20060;-84
2021/01/02 04:25:22;;;;;;;9.83;5.47;;;1.30;64.50;;;;;;6159499;23;20009;-84
2021/01/02 04:27:47;;;;;;;10.13;6.03;;;1.30;64.30;;;;;;6159858;23;20028;-84
2021/01/02 04:30:14;;;;;;;11.27;5.67;;;1.30;64.20;;;;;;6159800;23;20005;-84
2021/01/02 04:32:45;;;;;;;10.70;6.30;;;1.30;64.00;;;;;;6186703;23;20012;-84
2021/01/02 04:35:12;;;;;;;11.87;6.43;;;1.40;64.00;;;;;;6161651;23;20236;-84
2021/01/02 04:37:38;;;;;;;14.20;6.87;;;1.30;64.00;;;;;;6160828;23;20549;-85
2021/01/02 04:40:05;;;;;;;11.83;6.63;;;1.30;64.00;;;;;;6159811;23;20271;-84
2021/01/02 04:42:31;;;;;;;11.23;6.70;;;1.20;64.10;;;;;;6160885;23;20252;-84
2021/01/02 04:44:57;;;;;;;12.50;6.23;;;1.20;64.10;;;;;;6161173;23;20229;-84
2021/01/02 04:47:27;;;;;;;13.80;6.43;;;1.20;64.00;;;;;;6188223;23;20020;-84
2021/01/02 04:49:54;;;;;;;11.37;6.17;;;1.20;64.00;;;;;;6160292;23;20236;-85
2021/01/02 04:52:22;;;;;;;10.93;5.70;;;1.20;64.00;;;;;;6161378;23;20244;-84
2021/01/02 04:54:51;;;;;;;17.17;7.57;;;1.20;64.10;;;;;;6160417;23;20228;-84
2021/01/02 04:57:17;;;;;;;10.13;5.93;;;1.10;64.20;;;;;;6159672;23;20289;-85
2021/01/02 04:59:50;;;;;;;14.00;6.20;;;1.20;64.10;;;;;;6160295;23;20237;-85
2021/01/02 05:02:20;;;;;;;16.10;6.57;;;1.20;64.10;;;;;;6160477;23;20240;-85
2021/01/02 05:04:49;;;;;;;19.03;8.03;;;1.20;64.20;;;;;;6160807;23;20335;-85
2021/01/02 05:07:42;;;;;;;19.53;7.47;;;1.10;64.20;;;;;;6187333;23;20802;-85
2021/01/02 05:10:08;;;;;;;13.60;7.40;;;1.10;64.20;;;;;;6156431;23;20303;-84
2021/01/02 05:12:35;;;;;;;12.47;6.80;;;1.10;64.00;;;;;;6187535;23;20252;-84
2021/01/02 05:15:12;;;;;;;14.40;7.73;;;1.10;64.20;;;;;;6187006;23;20252;-84
2021/01/02 05:17:39;;;;;;;11.30;6.40;;;1.00;64.40;;;;;;6159786;23;20244;-84
2021/01/02 05:20:05;;;;;;;11.10;6.50;;;1.10;64.50;;;;;;6160832;23;20260;-84
2021/01/02 05:22:31;;;;;;;13.10;6.53;;;1.20;64.40;;;;;;6161498;23;20239;-84
2021/01/02 05:25:21;;;;;;;14.03;7.00;;;1.20;64.30;;;;;;6159693;23;20229;-84
2021/01/02 05:27:52;;;;;;;12.47;7.37;;;1.20;64.20;;;;;;6160484;23;20031;-84
2021/01/02 05:30:27;;;;;;;14.57;8.50;;;1.20;64.00;;;;;;6185904;23;20232;-84
2021/01/02 05:33:00;;;;;;;13.80;8.83;;;1.20;63.90;;;;;;6159940;23;20241;-84
2021/01/02 05:35:47;;;;;;;12.27;7.50;;;1.20;64.00;;;;;;6159993;23;21177;-84
2021/01/02 05:38:17;;;;;;;15.33;8.20;;;1.10;64.30;;;;;;6160888;23;20307;-84
2021/01/02 05:40:46;;;;;;;14.23;8.73;;;1.10;64.30;;;;;;6163057;23;20244;-84
2021/01/02 05:43:14;;;;;;;12.67;7.37;;;1.10;64.30;;;;;;6190709;23;20327;-84
2021/01/02 05:45:40;;;;;;;15.03;8.23;;;1.10;64.40;;;;;;6217259;23;20031;-84
2021/01/02 05:48:21;;;;;;;15.37;8.33;;;1.10;64.30;;;;;;6190837;23;20616;-84
2021/01/02 05:50:52;;;;;;;14.20;8.80;;;1.10;64.50;;;;;;6219209;23;20235;-84
2021/01/02 05:53:29;;;;;;;14.80;8.80;;;1.10;64.40;;;;;;6191653;23;20706;-84
2021/01/02 05:56:22;;;;;;;26.27;16.23;;;1.10;64.50;;;;;;6193195;23;20248;-84
2021/01/02 05:58:48;;;;;;;27.00;15.27;;;1.10;64.40;;;;;;6212129;23;20031;-84
2021/01/02 06:01:19;;;;;;;27.20;15.00;;;1.10;64.30;;;;;;6190920;23;20009;-84
2021/01/02 06:03:47;;;;;;;27.02;15.30;;;1.00;64.30;;;;;;6191105;23;20035;-84
2021/01/02 06:06:15;;;;;;;17.63;11.33;;;1.00;64.60;;;;;;6218878;23;19997;-84
2021/01/02 06:08:42;;;;;;;18.20;10.63;;;1.00;64.60;;;;;;6192424;23;20282;-84
2021/01/02 06:11:11;;;;;;;15.63;9.63;;;1.00;64.70;;;;;;6190632;23;20239;-84
2021/01/02 06:13:40;;;;;;;16.57;10.00;;;1.00;64.70;;;;;;6192333;23;20575;-84
2021/01/02 06:16:07;;;;;;;18.63;10.07;;;1.00;64.60;;;;;;6192650;23;20319;-84
2021/01/02 06:18:38;;;;;;;19.97;10.83;;;1.00;64.60;;;;;;6191196;23;21164;-84
2021/01/02 06:21:06;;;;;;;20.87;11.07;;;1.00;64.80;;;;;;6217975;23;20286;-84
2021/01/02 06:23:34;;;;;;;23.77;14.13;;;1.00;64.70;;;;;;6190237;23;20232;-84
2021/01/02 06:26:00;;;;;;;25.77;14.00;;;1.00;64.90;;;;;;6190541;23;20679;-84
2021/01/02 06:28:26;;;;;;;25.23;14.67;;;1.00;64.80;;;;;;6190036;23;20240;-84
2021/01/02 06:30:59;;;;;;;22.63;13.37;;;1.10;64.90;;;;;;6191912;23;20550;-84
2021/01/02 06:33:27;;;;;;;24.50;13.52;;;1.10;64.80;;;;;;6191321;23;20301;-84
2021/01/02 06:35:52;;;;;;;23.30;14.20;;;1.10;64.70;;;;;;6190271;23;20936;-84
2021/01/02 06:38:19;;;;;;;23.73;15.17;;;1.10;64.80;;;;;;6192179;23;20328;-84
2021/01/02 06:40:47;;;;;;;26.00;14.43;;;1.10;64.70;;;;;;6190685;23;20008;-84
2021/01/02 06:43:19;;;;;;;25.30;14.07;;;1.10;64.80;;;;;;6192175;23;20327;-84
2021/01/02 06:45:47;;;;;;;25.17;15.48;;;1.00;64.90;;;;;;6193431;23;20238;-84
2021/01/02 06:48:20;;;;;;;23.47;13.97;;;1.00;64.90;;;;;;6192033;23;20328;-85
2021/01/02 06:50:47;;;;;;;38.77;19.93;;;1.00;65.10;;;;;;6218013;23;20224;-84
2021/01/02 06:53:22;;;;;;;33.63;19.00;;;1.00;65.10;;;;;;6192427;23;20231;-84
2021/01/02 06:55:58;;;;;;;29.53;16.50;;;1.00;65.30;;;;;;6191692;23;20559;-84
2021/01/02 06:58:24;;;;;;;33.07;19.27;;;1.10;65.30;;;;;;6192084;23;20240;-84
2021/01/02 07:00:50;;;;;;;29.00;16.57;;;1.10;65.10;;;;;;6218970;23;20226;-84
2021/01/02 07:03:41;;;;;;;26.03;14.20;;;1.00;65.10;;;;;;6218111;23;20224;-85
2021/01/02 07:06:26;;;;;;;24.47;14.40;;;1.00;65.50;;;;;;6192583;23;20016;-85
2021/01/02 07:08:59;;;;;;;29.33;17.80;;;1.00;65.50;;;;;;6191429;23;20255;-84
2021/01/02 07:11:40;;;;;;;30.80;19.50;;;1.00;65.30;;;;;;6191504;23;20266;-84
2021/01/02 07:16:36;;;;;;;31.27;19.60;;;1.00;65.30;;;;;;6219172;23;20248;-84
2021/01/02 07:19:04;;;;;;;24.03;16.67;;;1.10;65.10;;;;;;6192227;23;20291;-84
2021/01/02 07:21:35;;;;;;;29.23;17.03;;;1.10;65.10;;;;;;6193339;23;20231;-84
2021/01/02 07:24:26;;;;;;;27.30;15.63;;;1.10;65.00;;;;;;6191591;23;20234;-84
2021/01/02 07:27:09;;;;;;;30.27;16.93;;;1.00;65.10;;;;;;6190628;23;20250;-84
2021/01/02 07:29:39;;;;;;;;;;;1.00;65.00;;;;;;6189207;23;20240;-83
2021/01/02 07:32:10;;;;;;;35.17;20.60;;;1.00;64.80;;;;;;6216202;23;19900;-83
2021/01/02 07:34:37;;;;;;;31.17;16.80;;;0.90;65.00;;;;;;6189457;23;20235;-83
2021/01/02 07:37:05;;;;;;;29.53;17.33;;;0.90;65.00;;;;;;6187428;23;20255;-83
2021/01/02 07:39:31;;;;;;;24.27;15.37;;;0.90;65.00;;;;;;6185683;23;20247;-83
2021/01/02 07:42:03;;;;;;;27.90;16.20;;;0.90;65.00;;;;;;6169252;23;20557;-83
2021/01/02 07:44:29;;;;;;;27.33;17.10;;;0.90;65.20;;;;;;6156307;23;20963;-83
2021/01/02 07:46:55;;;;;;;26.10;15.87;;;0.90;65.00;;;;;;6158577;23;20005;-83
2021/01/02 07:49:21;;;;;;;36.17;22.23;;;0.90;65.30;;;;;;6158593;23;20013;-83
2021/01/02 07:51:50;;;;;;;35.43;21.47;;;0.90;65.20;;;;;;6158259;23;20016;-83
2021/01/02 07:54:36;;;;;;;39.87;22.40;;;0.90;65.40;;;;;;6156857;23;20009;-83
2021/01/02 07:57:06;;;;;;;39.03;23.13;;;0.90;65.30;;;;;;6187707;23;20703;-83
2021/01/02 07:59:36;;;;;;;34.27;19.03;;;0.90;65.30;;;;;;6184399;23;20212;-83
2021/01/02 08:02:07;;;;;;;52.47;29.80;;;0.90;65.30;;;;;;6158701;23;20938;-83
2021/01/02 08:04:34;;;;;;;45.23;26.77;;;0.90;65.40;;;;;;6160314;23;20702;-83
2021/01/02 08:07:04;;;;;;;46.43;28.20;;;0.90;65.30;;;;;;6160355;23;20244;-83
2021/01/02 08:09:32;;;;;;;44.17;25.60;;;1.00;65.30;;;;;;6158331;23;20251;-83
2021/01/02 08:12:08;;;;;;;37.73;23.17;;;1.10;65.20;;;;;;6160466;23;20328;-83
2021/01/02 08:14:36;;;;;;;38.80;22.70;;;1.10;65.10;;;;;;6160625;23;20236;-83
2021/01/02 08:17:06;;;;;;;34.73;19.27;;;1.10;65.00;;;;;;6161038;23;20303;-83
2021/01/02 08:19:36;;;;;;;29.57;17.67;;;1.10;65.00;;;;;;6186719;23;20549;-83
2021/01/02 08:22:07;;;;;;;28.67;18.40;;;1.10;65.00;;;;;;6160861;23;20316;-83
2021/01/02 08:24:33;;;;;;;26.37;16.03;;;1.10;65.00;;;;;;6186763;23;20229;-83
2021/01/02 08:27:02;;;;;;;31.90;18.33;;;1.20;65.10;;;;;;6160672;23;20906;-83
2021/01/02 08:29:30;;;;;;;36.10;19.67;;;1.20;65.00;;;;;;6155976;23;20332;-84
2021/01/02 08:31:59;;;;;;;31.37;18.53;;;1.20;65.00;;;;;;6156177;23;20228;-84
2021/01/02 08:34:31;;;;;;;31.47;19.23;;;1.20;65.10;;;;;;6186970;23;20251;-84
2021/01/02 08:37:05;;;;;;;32.77;18.70;;;1.20;65.20;;;;;;6186255;23;20244;-84
2021/01/02 08:39:32;;;;;;;28.97;18.87;;;1.20;65.20;;;;;;6160480;23;20240;-84
2021/01/02 08:41:59;;;;;;;47.70;31.77;;;1.20;65.20;;;;;;6205920;23;20005;-84
2021/01/02 08:44:35;;;;;;;42.10;26.33;;;1.30;65.30;;;;;;6190993;23;20027;-84
2021/01/02 08:47:02;;;;;;;42.80;26.23;;;1.30;65.20;;;;;;6216920;23;20259;-84
2021/01/02 08:49:41;;;;;;;40.20;23.97;;;1.30;65.20;;;;;;6189731;23;20240;-84
2021/01/02 08:52:18;;;;;;;43.57;25.73;;;1.30;65.30;;;;;;6217498;23;20240;-84
2021/01/02 08:54:45;;;;;;;40.70;24.27;;;1.40;65.20;;;;;;6190374;23;20294;-84
2021/01/02 08:57:34;;;;;;;48.83;27.13;;;1.40;64.90;;;;;;6218253;23;20000;-83
2021/01/02 09:00:29;;;;;;;50.70;28.57;;;1.40;65.00;;;;;;6190732;23;20236;-83
2021/01/02 09:02:54;;;;;;;54.10;30.93;;;1.50;64.90;;;;;;6216322;23;20324;-82
2021/01/02 09:05:27;;;;;;;39.33;24.23;;;1.50;64.60;;;;;;6189262;23;20007;-82
2021/01/02 09:07:59;;;;;;;44.13;24.20;;;1.60;64.60;;;;;;6190318;23;20019;-83
2021/01/02 09:10:25;;;;;;;36.67;21.50;;;1.60;64.60;;;;;;6216817;23;20008;-82
2021/01/02 09:13:11;;;;;;;28.90;18.30;;;1.60;64.80;;;;;;6190141;23;20005;-83
2021/01/02 09:15:47;;;;;;;38.27;23.53;;;1.60;65.00;;;;;;6191978;23;20005;-83
2021/01/02 09:18:17;;;;;;;49.73;27.10;;;1.70;64.80;;;;;;6192275;23;20077;-83
2021/01/02 09:20:43;;;;;;;46.30;28.10;;;1.70;64.70;;;;;;6189962;23;20011;-83
2021/01/02 09:23:10;;;;;;;53.03;29.07;;;1.80;64.80;;;;;;6191499;23;20091;-83
2021/01/02 09:25:37;;;;;;;65.93;34.10;;;1.90;64.80;;;;;;6190598;23;20001;-83
2021/01/02 09:28:17;;;;;;;60.73;31.03;;;2.00;64.70;;;;;;6216491;23;20011;-83
2021/01/02 09:30:47;;;;;;;50.40;27.70;;;2.00;64.70;;;;;;6188427;23;20019;-83
2021/01/02 09:33:14;;;;;;;84.90;36.97;;;2.00;64.50;;;;;;6191058;23;20087;-83
2021/01/02 09:35:41;;;;;;;47.67;25.83;;;2.10;64.60;;;;;;6218496;23;19993;-83
2021/01/02 09:38:07;;;;;;;34.27;19.90;;;2.10;64.40;;;;;;6191690;23;20011;-83
2021/01/02 09:40:36;;;;;;;29.13;17.27;;;2.10;64.60;;;;;;6190328;23;20008;-83
2021/01/02 09:43:03;;;;;;;25.90;16.83;;;2.30;64.60;;;;;;6217870;23;20087;-83
2021/01/02 09:45:28;;;;;;;27.10;16.57;;;2.40;64.30;;;;;;6217729;23;20024;-83
2021/01/02 09:47:54;;;;;;;26.97;16.13;;;2.40;64.20;;;;;;6189780;23;20009;-83
2021/01/02 09:50:20;;;;;;;30.57;18.30;;;2.50;64.30;;;;;;6190637;23;20008;-83
2021/01/02 09:52:46;;;;;;;38.90;20.50;;;2.60;64.20;;;;;;6190934;23;20455;-83
2021/01/02 09:55:12;;;;;;;30.20;19.30;;;2.80;64.10;;;;;;6187189;23;20431;-83
2021/01/02 09:57:37;;;;;;;30.10;18.47;;;3.00;64.00;;;;;;6186201;23;20305;-83
2021/01/02 10:00:08;;;;;;;33.53;18.07;;;3.10;63.80;;;;;;6186692;23;20005;-83
2021/01/02 10:02:34;;;;;;;25.87;17.10;;;3.20;63.50;;;;;;6188300;23;20310;-83
2021/01/02 10:05:00;;;;;;;29.73;18.40;;;3.40;63.60;;;;;;6187670;23;20008;-83
2021/01/02 10:07:26;;;;;;;27.93;17.60;;;3.50;63.30;;;;;;6187585;23;20004;-83
2021/01/02 10:09:52;;;;;;;28.23;18.40;;;3.60;62.90;;;;;;6186988;23;20378;-83
2021/01/02 10:12:19;;;;;;;26.70;18.63;;;3.80;63.10;;;;;;6187870;23;20032;-83
2021/01/02 10:14:46;;;;;;;26.77;16.13;;;4.00;62.70;;;;;;6186917;23;20014;-83
2021/01/02 10:17:12;;;;;;;34.37;20.30;;;4.20;62.00;;;;;;6186731;23;20325;-83
2021/01/02 10:19:45;;;;;;;36.73;21.87;;;4.20;61.70;;;;;;6214454;23;20031;-83
2021/01/02 10:22:13;;;;;;;37.20;21.47;;;4.20;61.80;;;;;;6188038;23;20000;-83
2021/01/02 10:24:39;;;;;;;32.13;20.97;;;4.10;61.90;;;;;;6187229;23;20001;-83
2021/01/02 10:27:06;;;;;;;31.70;18.63;;;4.10;62.30;;;;;;6186550;23;20011;-83
2021/01/02 10:29:32;;;;;;;31.13;19.47;;;4.00;61.90;;;;;;6187482;23;20094;-83
2021/01/02 10:32:03;;;;;;;34.53;20.90;;;4.10;62.10;;;;;;6187153;23;20091;-83
2021/01/02 10:34:28;;;;;;;30.47;19.10;;;4.20;61.70;;;;;;6187292;23;20455;-83
2021/01/02 10:36:57;;;;;;;32.83;19.97;;;4.20;61.70;;;;;;6187259;23;20008;-83
2021/01/02 10:39:23;;;;;;;26.03;16.50;;;4.20;61.60;;;;;;6186398;23;20289;-83
2021/01/02 10:41:50;;;;;;;25.70;16.93;;;4.00;61.40;;;;;;6213268;23;20023;-83
2021/01/02 10:44:18;;;;;;;27.70;17.60;;;4.00;61.70;;;;;;6188153;23;20001;-83
2021/01/02 10:46:49;;;;;;;30.47;16.13;;;3.90;62.00;;;;;;6215682;23;20005;-83
2021/01/02 10:49:17;;;;;;;25.40;16.90;;;4.00;61.90;;;;;;6188541;23;20012;-83
2021/01/02 10:51:45;;;;;;;28.27;18.27;;;4.00;61.80;;;;;;6187654;23;20080;-83
2021/01/02 10:54:11;;;;;;;31.20;18.73;;;4.10;61.80;;;;;;6216318;23;20062;-83
2021/01/02 10:56:42;;;;;;;30.70;19.37;;;4.10;61.70;;;;;;6184436;23;20012;-83
2021/01/02 10:59:08;;;;;;;26.67;17.23;;;4.10;61.70;;;;;;6190529;23;20011;-83
2021/01/02 11:01:45;;;;;;;24.03;16.73;;;4.10;61.70;;;;;;6187234;23;20004;-83
2021/01/02 11:04:12;;;;;;;27.77;17.17;;;4.00;61.50;;;;;;6187341;23;20007;-83
2021/01/02 11:06:39;;;;;;;26.30;16.40;;;4.00;61.40;;;;;;6188375;23;20009;-83
2021/01/02 11:09:11;;;;;;;26.93;16.97;;;4.00;61.60;;;;;;6185979;23;20012;-83
2021/01/02 11:11:37;;;;;;;25.90;16.60;;;4.00;61.60;;;;;;6188078;23;20083;-83
2021/01/02 11:14:04;;;;;;;25.23;16.20;;;4.00;61.30;;;;;;6187696;23;20008;-83
2021/01/02 11:16:36;;;;;;;27.17;18.40;;;4.00;61.50;;;;;;6188581;23;20012;-83
2021/01/02 11:19:08;;;;;;;30.65;17.70;;;3.90;61.50;;;;;;6212565;23;20021;-83
2021/01/02 11:21:34;;;;;;;26.33;16.25;;;3.90;61.70;;;;;;6190553;23;20004;-83
2021/01/02 11:24:00;;;;;;;26.20;16.50;;;4.00;61.80;;;;;;6216517;23;20459;-83
2021/01/02 11:26:26;;;;;;;27.80;17.70;;;4.20;61.60;;;;;;6190049;23;20016;-83
2021/01/02 11:28:51;;;;;;;26.03;17.77;;;4.20;61.40;;;;;;6188797;23;20004;-83
2021/01/02 11:31:26;;;;;;;29.13;18.47;;;4.30;61.30;;;;;;6192211;23;20043;-83
2021/01/02 11:33:52;;;;;;;28.20;17.00;;;4.40;61.20;;;;;;6189995;23;20009;-83
2021/01/02 11:36:18;;;;;;;59.93;24.63;;;4.50;60.90;;;;;;6193396;23;20004;-83
2021/01/02 11:38:43;;;;;;;45.40;22.20;;;4.60;60.70;;;;;;6195001;23;20039;-84
2021/01/02 11:41:09;;;;;;;46.60;26.40;;;4.80;60.80;;;;;;6186776;23;20017;-84
2021/01/02 11:43:37;;;;;;;34.87;21.30;;;4.90;60.50;;;;;;6164320;23;20028;-84
2021/01/02 11:46:03;;;;;;;27.10;17.30;;;5.10;60.30;;;;;;6163668;23;20357;-83
2021/01/02 11:48:29;;;;;;;28.03;18.70;;;5.20;59.90;;;;;;6166863;23;20009;-83
2021/01/02 11:50:54;;;;;;;32.40;18.97;;;5.20;59.60;;;;;;6165557;23;20005;-85
2021/01/02 11:53:20;;;;;;;36.50;19.87;;;5.30;59.50;;;;;;6165410;23;20005;-83
2021/01/02 11:55:51;;;;;;;31.57;19.27;;;5.30;59.30;;;;;;6163909;23;20064;-83
2021/01/02 11:58:19;;;;;;;29.77;18.10;;;5.30;59.30;;;;;;6165039;23;20009;-83
2021/01/02 12:00:45;;;;;;;27.63;18.07;;;5.40;59.10;;;;;;6164348;23;20005;-84
2021/01/02 12:03:10;;;;;;;30.10;18.07;;;5.50;59.00;;;;;;6163139;23;19997;-84
2021/01/02 12:05:36;;;;;;;29.70;18.20;;;5.40;58.80;;;;;;6163943;23;20107;-84
2021/01/02 12:08:02;;;;;;;27.03;17.07;;;5.40;58.80;;;;;;6163016;23;20314;-84
2021/01/02 12:10:28;;;;;;;29.13;18.23;;;5.30;58.90;;;;;;6164579;23;20076;-83
2021/01/02 12:12:53;;;;;;;25.97;16.10;;;5.40;59.00;;;;;;6163992;23;20013;-84
2021/01/02 12:15:19;;;;;;;28.67;16.93;;;5.50;58.90;;;;;;6164863;23;20013;-84
2021/01/02 12:17:45;;;;;;;29.07;17.70;;;5.50;58.70;;;;;;6164206;23;20013;-84
2021/01/02 12:20:11;;;;;;;23.93;16.63;;;5.60;58.50;;;;;;6164390;23;20414;-84
2021/01/02 12:22:37;;;;;;;25.80;16.90;;;5.60;58.90;;;;;;6164063;23;20437;-84
2021/01/02 12:25:04;;;;;;;24.33;16.60;;;5.60;58.30;;;;;;6162434;23;20011;-84
2021/01/02 12:27:30;;;;;;;29.23;17.33;;;5.50;58.10;;;;;;6164058;23;20013;-84
2021/01/02 12:29:56;;;;;;;27.60;17.73;;;5.50;58.30;;;;;;6164096;23;20009;-84
2021/01/02 12:32:25;;;;;;;25.40;17.13;;;5.40;58.50;;;;;;6164038;23;20005;-84
2021/01/02 12:34:51;;;;;;;27.30;17.33;;;5.30;58.50;;;;;;6164970;23;20012;-84
2021/01/02 12:37:17;;;;;;;27.63;17.70;;;5.30;58.50;;;;;;6163229;23;20012;-84
2021/01/02 12:39:45;;;;;;;23.33;16.50;;;5.20;58.60;;;;;;6164801;23;20013;-84
2021/01/02 12:42:12;;;;;;;28.47;16.90;;;5.20;58.60;;;;;;6165461;23;20032;-83
2021/01/02 12:44:37;;;;;;;26.23;17.40;;;5.10;58.60;;;;;;6164684;23;20005;-82
2021/01/02 12:47:11;;;;;;;24.13;16.30;;;5.10;58.60;;;;;;6165316;23;20019;-83
2021/01/02 12:49:37;;;;;;;28.47;17.93;;;5.10;58.60;;;;;;6165257;23;20012;-83
2021/01/02 12:52:06;;;;;;;26.57;18.17;;;5.00;58.70;;;;;;6175045;23;20016;-83
2021/01/02 12:54:33;;;;;;;25.17;16.77;;;4.90;59.00;;;;;;6191558;23;20088;-83
2021/01/02 12:56:59;;;;;;;26.30;17.10;;;5.00;59.20;;;;;;6164634;23;20009;-82
2021/01/02 12:59:27;;;;;;;30.10;18.30;;;5.00;58.90;;;;;;6163609;23;20067;-83
2021/01/02 13:01:53;;;;;;;30.27;18.17;;;4.90;58.90;;;;;;6163569;23;20005;-83
2021/01/02 13:04:19;;;;;;;29.73;18.77;;;4.80;59.10;;;;;;6164281;23;20508;-83